<?xml version="1.0" encoding="UTF-8" standalone="no" ?>
<gpx xmlns="http://www.topografix.com/GPX/1/1" xmlns:xsi="http://www.w3.org/2001/XMLSchema-instance" xsi:schemaLocation="http://www.topografix.com/GPX/1/1 http://www.topografix.com/GPX/1/1/gpx.xsd" version="1.1" creator="VisuGPX - https://www.visugpx.com">
  <metadata>
    <name>Vertou_ChateauThebaudClisson_20-30km</name>
    <desc><![CDATA[gnerando idor:7030879_8004523_15824577]]></desc>
  </metadata>
  <wpt lat="47.16584" lon="-1.47958">
    <ele>4</ele>
    <name><![CDATA[0001156]]></name>
  </wpt>
  <wpt lat="47.12025" lon="-1.4203">
    <ele>48</ele>
    <name><![CDATA[chauviniere Cave]]></name>
  </wpt>
  <wpt lat="47.12582" lon="-1.41639">
    <ele>23.7</ele>
    <name><![CDATA[0001158]]></name>
  </wpt>
  <wpt lat="47.12602" lon="-1.41622">
    <ele>21.7</ele>
    <name><![CDATA[0001159]]></name>
  </wpt>
  <wpt lat="47.16576" lon="-1.47955">
    <ele>4</ele>
    <name><![CDATA[0001160]]></name>
  </wpt>
  <trk>
    <name><![CDATA[Vertou_ boucleChateauThebaud_20.3km-7030879]]></name>
    <extensions>
      <line xmlns="http://www.topografix.com/GPX/gpx_style/0/2">
        <color>0000FF</color>
        <width>4</width>
      </line>
    </extensions>
    <trkseg>
      <trkpt lat="47.14995" lon="-1.46769">
        <ele>9</ele>
        <time>2023-11-14T06:30:52Z</time>
      </trkpt>
      <trkpt lat="47.14972" lon="-1.46636">
        <ele>14</ele>
        <time>2023-11-14T06:32:57Z</time>
      </trkpt>
      <trkpt lat="47.14957" lon="-1.46525">
        <ele>15</ele>
        <time>2023-11-14T06:34:39Z</time>
      </trkpt>
      <trkpt lat="47.14975" lon="-1.46422">
        <ele>14</ele>
        <time>2023-11-14T06:36:16Z</time>
      </trkpt>
      <trkpt lat="47.14969" lon="-1.46289">
        <ele>17</ele>
        <time>2023-11-14T06:38:17Z</time>
      </trkpt>
      <trkpt lat="47.15001" lon="-1.4616">
        <ele>13</ele>
        <time>2023-11-14T06:40:21Z</time>
      </trkpt>
      <trkpt lat="47.15018" lon="-1.46083">
        <ele>10</ele>
        <time>2023-11-14T06:41:35Z</time>
      </trkpt>
      <trkpt lat="47.14995" lon="-1.4601">
        <ele>11</ele>
        <time>2023-11-14T06:42:48Z</time>
      </trkpt>
      <trkpt lat="47.15018" lon="-1.45945">
        <ele>9</ele>
        <time>2023-11-14T06:43:54Z</time>
      </trkpt>
      <trkpt lat="47.15013" lon="-1.45864">
        <ele>9</ele>
        <time>2023-11-14T06:45:08Z</time>
      </trkpt>
      <trkpt lat="47.15033" lon="-1.45782">
        <ele>8</ele>
        <time>2023-11-14T06:46:27Z</time>
      </trkpt>
      <trkpt lat="47.1503" lon="-1.45688">
        <ele>8</ele>
        <time>2023-11-14T06:47:53Z</time>
      </trkpt>
      <trkpt lat="47.15042" lon="-1.45568">
        <ele>9</ele>
        <time>2023-11-14T06:49:43Z</time>
      </trkpt>
      <trkpt lat="47.15068" lon="-1.45387">
        <ele>11</ele>
        <time>2023-11-14T06:52:31Z</time>
      </trkpt>
      <trkpt lat="47.15103" lon="-1.45229">
        <ele>11</ele>
        <time>2023-11-14T06:55:01Z</time>
      </trkpt>
      <trkpt lat="47.15129" lon="-1.451">
        <ele>9</ele>
        <time>2023-11-14T06:57:03Z</time>
      </trkpt>
      <trkpt lat="47.15094" lon="-1.44984">
        <ele>11</ele>
        <time>2023-11-14T06:58:59Z</time>
      </trkpt>
      <trkpt lat="47.15051" lon="-1.44928">
        <ele>13</ele>
        <time>2023-11-14T07:00:15Z</time>
      </trkpt>
      <trkpt lat="47.14954" lon="-1.4495">
        <ele>18</ele>
        <time>2023-11-14T07:02:26Z</time>
      </trkpt>
      <trkpt lat="47.14858" lon="-1.44988">
        <ele>23</ele>
        <time>2023-11-14T07:04:39Z</time>
      </trkpt>
      <trkpt lat="47.14808" lon="-1.45001">
        <ele>24</ele>
        <time>2023-11-14T07:05:47Z</time>
      </trkpt>
      <trkpt lat="47.14747" lon="-1.45005">
        <ele>24</ele>
        <time>2023-11-14T07:07:08Z</time>
      </trkpt>
      <trkpt lat="47.14706" lon="-1.44993">
        <ele>24</ele>
        <time>2023-11-14T07:08:04Z</time>
      </trkpt>
      <trkpt lat="47.14639" lon="-1.44937">
        <ele>24</ele>
        <time>2023-11-14T07:09:47Z</time>
      </trkpt>
      <trkpt lat="47.14572" lon="-1.44872">
        <ele>26</ele>
        <time>2023-11-14T07:11:34Z</time>
      </trkpt>
      <trkpt lat="47.14519" lon="-1.44774">
        <ele>28</ele>
        <time>2023-11-14T07:13:28Z</time>
      </trkpt>
      <trkpt lat="47.1449" lon="-1.44727">
        <ele>29</ele>
        <time>2023-11-14T07:14:25Z</time>
      </trkpt>
      <trkpt lat="47.14417" lon="-1.44739">
        <ele>29</ele>
        <time>2023-11-14T07:16:03Z</time>
      </trkpt>
      <trkpt lat="47.14324" lon="-1.44765">
        <ele>29</ele>
        <time>2023-11-14T07:18:10Z</time>
      </trkpt>
      <trkpt lat="47.14262" lon="-1.44799">
        <ele>30</ele>
        <time>2023-11-14T07:19:38Z</time>
      </trkpt>
      <trkpt lat="47.14213" lon="-1.44666">
        <ele>32</ele>
        <time>2023-11-14T07:21:55Z</time>
      </trkpt>
      <trkpt lat="47.14175" lon="-1.44589">
        <ele>35</ele>
        <time>2023-11-14T07:23:21Z</time>
      </trkpt>
      <trkpt lat="47.13889" lon="-1.44658">
        <ele>50</ele>
        <time>2023-11-14T07:29:48Z</time>
      </trkpt>
      <trkpt lat="47.13816" lon="-1.44697">
        <ele>47</ele>
        <time>2023-11-14T07:31:32Z</time>
      </trkpt>
      <trkpt lat="47.13784" lon="-1.44542">
        <ele>46</ele>
        <time>2023-11-14T07:33:59Z</time>
      </trkpt>
      <trkpt lat="47.13936" lon="-1.44435">
        <ele>47</ele>
        <time>2023-11-14T07:37:44Z</time>
      </trkpt>
      <trkpt lat="47.1393" lon="-1.44336">
        <ele>37</ele>
        <time>2023-11-14T07:39:14Z</time>
      </trkpt>
      <trkpt lat="47.14008" lon="-1.44285">
        <ele>32</ele>
        <time>2023-11-14T07:41:08Z</time>
      </trkpt>
      <trkpt lat="47.14038" lon="-1.44224">
        <ele>28</ele>
        <time>2023-11-14T07:42:16Z</time>
      </trkpt>
      <trkpt lat="47.14073" lon="-1.44066">
        <ele>19</ele>
        <time>2023-11-14T07:44:47Z</time>
      </trkpt>
      <trkpt lat="47.14035" lon="-1.4407">
        <ele>20</ele>
        <time>2023-11-14T07:45:38Z</time>
      </trkpt>
      <trkpt lat="47.13982" lon="-1.44057">
        <ele>23</ele>
        <time>2023-11-14T07:46:50Z</time>
      </trkpt>
      <trkpt lat="47.139" lon="-1.44014">
        <ele>28</ele>
        <time>2023-11-14T07:48:46Z</time>
      </trkpt>
      <trkpt lat="47.13816" lon="-1.44036">
        <ele>32</ele>
        <time>2023-11-14T07:50:40Z</time>
      </trkpt>
      <trkpt lat="47.13752" lon="-1.44121">
        <ele>36</ele>
        <time>2023-11-14T07:52:35Z</time>
      </trkpt>
      <trkpt lat="47.13693" lon="-1.44203">
        <ele>37</ele>
        <time>2023-11-14T07:54:23Z</time>
      </trkpt>
      <trkpt lat="47.13644" lon="-1.44267">
        <ele>37</ele>
        <time>2023-11-14T07:55:51Z</time>
      </trkpt>
      <trkpt lat="47.13544" lon="-1.44194">
        <ele>39</ele>
        <time>2023-11-14T07:58:20Z</time>
      </trkpt>
      <trkpt lat="47.1348" lon="-1.44087">
        <ele>43</ele>
        <time>2023-11-14T08:00:29Z</time>
      </trkpt>
      <trkpt lat="47.13512" lon="-1.43945">
        <ele>45</ele>
        <time>2023-11-14T08:02:45Z</time>
      </trkpt>
      <trkpt lat="47.13509" lon="-1.43825">
        <ele>47</ele>
        <time>2023-11-14T08:04:34Z</time>
      </trkpt>
      <trkpt lat="47.13474" lon="-1.43722">
        <ele>49</ele>
        <time>2023-11-14T08:06:18Z</time>
      </trkpt>
      <trkpt lat="47.13524" lon="-1.43624">
        <ele>49</ele>
        <time>2023-11-14T08:08:09Z</time>
      </trkpt>
      <trkpt lat="47.13568" lon="-1.43632">
        <ele>48</ele>
        <time>2023-11-14T08:09:09Z</time>
      </trkpt>
      <trkpt lat="47.13629" lon="-1.43589">
        <ele>45</ele>
        <time>2023-11-14T08:10:39Z</time>
      </trkpt>
      <trkpt lat="47.13591" lon="-1.43525">
        <ele>45</ele>
        <time>2023-11-14T08:11:56Z</time>
      </trkpt>
      <trkpt lat="47.13541" lon="-1.43448">
        <ele>46</ele>
        <time>2023-11-14T08:13:33Z</time>
      </trkpt>
      <trkpt lat="47.13512" lon="-1.43345">
        <ele>44</ele>
        <time>2023-11-14T08:15:14Z</time>
      </trkpt>
      <trkpt lat="47.13489" lon="-1.43276">
        <ele>44</ele>
        <time>2023-11-14T08:16:24Z</time>
      </trkpt>
      <trkpt lat="47.13267" lon="-1.43503">
        <ele>47</ele>
        <time>2023-11-14T08:22:25Z</time>
      </trkpt>
      <trkpt lat="47.13226" lon="-1.43508">
        <ele>46</ele>
        <time>2023-11-14T08:23:19Z</time>
      </trkpt>
      <trkpt lat="47.13159" lon="-1.43585">
        <ele>49</ele>
        <time>2023-11-14T08:25:13Z</time>
      </trkpt>
      <trkpt lat="47.13068" lon="-1.43658">
        <ele>51</ele>
        <time>2023-11-14T08:27:31Z</time>
      </trkpt>
      <trkpt lat="47.12984" lon="-1.43679">
        <ele>54</ele>
        <time>2023-11-14T08:29:25Z</time>
      </trkpt>
      <trkpt lat="47.12887" lon="-1.43709">
        <ele>55</ele>
        <time>2023-11-14T08:31:37Z</time>
      </trkpt>
      <trkpt lat="47.12847" lon="-1.43748">
        <ele>54</ele>
        <time>2023-11-14T08:32:41Z</time>
      </trkpt>
      <trkpt lat="47.12782" lon="-1.4377">
        <ele>53</ele>
        <time>2023-11-14T08:34:10Z</time>
      </trkpt>
      <trkpt lat="47.12739" lon="-1.43808">
        <ele>54</ele>
        <time>2023-11-14T08:35:17Z</time>
      </trkpt>
      <trkpt lat="47.1263" lon="-1.43847">
        <ele>54</ele>
        <time>2023-11-14T08:37:47Z</time>
      </trkpt>
      <trkpt lat="47.12578" lon="-1.43851">
        <ele>54</ele>
        <time>2023-11-14T08:38:56Z</time>
      </trkpt>
      <trkpt lat="47.12517" lon="-1.43791">
        <ele>54</ele>
        <time>2023-11-14T08:40:34Z</time>
      </trkpt>
      <trkpt lat="47.12458" lon="-1.43731">
        <ele>53</ele>
        <time>2023-11-14T08:42:10Z</time>
      </trkpt>
      <trkpt lat="47.12429" lon="-1.43701">
        <ele>52</ele>
        <time>2023-11-14T08:42:57Z</time>
      </trkpt>
      <trkpt lat="47.12376" lon="-1.43602">
        <ele>51</ele>
        <time>2023-11-14T08:44:52Z</time>
      </trkpt>
      <trkpt lat="47.12286" lon="-1.43478">
        <ele>51</ele>
        <time>2023-11-14T08:47:36Z</time>
      </trkpt>
      <trkpt lat="47.12257" lon="-1.43443">
        <ele>51</ele>
        <time>2023-11-14T08:48:27Z</time>
      </trkpt>
      <trkpt lat="47.12216" lon="-1.43349">
        <ele>52</ele>
        <time>2023-11-14T08:50:08Z</time>
      </trkpt>
      <trkpt lat="47.12172" lon="-1.43255">
        <ele>51</ele>
        <time>2023-11-14T08:51:52Z</time>
      </trkpt>
      <trkpt lat="47.12143" lon="-1.43173">
        <ele>51</ele>
        <time>2023-11-14T08:53:15Z</time>
      </trkpt>
      <trkpt lat="47.12105" lon="-1.43122">
        <ele>52</ele>
        <time>2023-11-14T08:54:24Z</time>
      </trkpt>
      <trkpt lat="47.12049" lon="-1.43027">
        <ele>51</ele>
        <time>2023-11-14T08:56:18Z</time>
      </trkpt>
      <trkpt lat="47.11994" lon="-1.4298">
        <ele>51</ele>
        <time>2023-11-14T08:57:43Z</time>
      </trkpt>
      <trkpt lat="47.11953" lon="-1.42916">
        <ele>49</ele>
        <time>2023-11-14T08:59:03Z</time>
      </trkpt>
      <trkpt lat="47.11909" lon="-1.42851">
        <ele>50</ele>
        <time>2023-11-14T09:00:26Z</time>
      </trkpt>
      <trkpt lat="47.11874" lon="-1.4277">
        <ele>48</ele>
        <time>2023-11-14T09:01:53Z</time>
      </trkpt>
      <trkpt lat="47.11839" lon="-1.42671">
        <ele>46</ele>
        <time>2023-11-14T09:03:35Z</time>
      </trkpt>
      <trkpt lat="47.11816" lon="-1.42632">
        <ele>45</ele>
        <time>2023-11-14T09:04:22Z</time>
      </trkpt>
      <trkpt lat="47.11792" lon="-1.42555">
        <ele>45</ele>
        <time>2023-11-14T09:05:38Z</time>
      </trkpt>
      <trkpt lat="47.11769" lon="-1.42461">
        <ele>45</ele>
        <time>2023-11-14T09:07:09Z</time>
      </trkpt>
      <trkpt lat="47.11757" lon="-1.42396">
        <ele>45</ele>
        <time>2023-11-14T09:08:10Z</time>
      </trkpt>
      <trkpt lat="47.11754" lon="-1.42336">
        <ele>43</ele>
        <time>2023-11-14T09:09:05Z</time>
      </trkpt>
      <trkpt lat="47.1174" lon="-1.42272">
        <ele>43</ele>
        <time>2023-11-14T09:10:06Z</time>
      </trkpt>
      <trkpt lat="47.11769" lon="-1.42177">
        <ele>44</ele>
        <time>2023-11-14T09:11:41Z</time>
      </trkpt>
      <trkpt lat="47.11871" lon="-1.42109">
        <ele>46</ele>
        <time>2023-11-14T09:14:10Z</time>
      </trkpt>
      <trkpt lat="47.12023" lon="-1.42027">
        <ele>47</ele>
        <time>2023-11-14T09:17:46Z</time>
      </trkpt>
      <trkpt lat="47.12117" lon="-1.42019">
        <ele>47</ele>
        <time>2023-11-14T09:19:52Z</time>
      </trkpt>
      <trkpt lat="47.12163" lon="-1.42031">
        <ele>47</ele>
        <time>2023-11-14T09:20:54Z</time>
      </trkpt>
      <trkpt lat="47.12239" lon="-1.42023">
        <ele>49</ele>
        <time>2023-11-14T09:22:36Z</time>
      </trkpt>
      <trkpt lat="47.12312" lon="-1.42027">
        <ele>51</ele>
        <time>2023-11-14T09:24:13Z</time>
      </trkpt>
      <trkpt lat="47.12344" lon="-1.41976">
        <ele>46</ele>
        <time>2023-11-14T09:25:16Z</time>
      </trkpt>
      <trkpt lat="47.12394" lon="-1.41924">
        <ele>45</ele>
        <time>2023-11-14T09:26:38Z</time>
      </trkpt>
      <trkpt lat="47.12449" lon="-1.41924">
        <ele>49</ele>
        <time>2023-11-14T09:27:51Z</time>
      </trkpt>
      <trkpt lat="47.12464" lon="-1.41903">
        <ele>48</ele>
        <time>2023-11-14T09:28:19Z</time>
      </trkpt>
      <trkpt lat="47.12499" lon="-1.41877">
        <ele>48</ele>
        <time>2023-11-14T09:29:11Z</time>
      </trkpt>
      <trkpt lat="47.12537" lon="-1.41856">
        <ele>47</ele>
        <time>2023-11-14T09:30:06Z</time>
      </trkpt>
      <trkpt lat="47.12543" lon="-1.41808">
        <ele>43</ele>
        <time>2023-11-14T09:30:50Z</time>
      </trkpt>
      <trkpt lat="47.1254" lon="-1.41753">
        <ele>36</ele>
        <time>2023-11-14T09:31:40Z</time>
      </trkpt>
      <trkpt lat="47.12534" lon="-1.41675">
        <ele>23</ele>
        <time>2023-11-14T09:32:51Z</time>
      </trkpt>
      <trkpt lat="47.12572" lon="-1.41632">
        <ele>21</ele>
        <time>2023-11-14T09:33:55Z</time>
      </trkpt>
      <trkpt lat="47.12604" lon="-1.41598">
        <ele>18</ele>
        <time>2023-11-14T09:34:48Z</time>
      </trkpt>
      <trkpt lat="47.12581" lon="-1.41551">
        <ele>12</ele>
        <time>2023-11-14T09:35:40Z</time>
      </trkpt>
      <trkpt lat="47.12537" lon="-1.41486">
        <ele>9</ele>
        <time>2023-11-14T09:37:04Z</time>
      </trkpt>
      <trkpt lat="47.12517" lon="-1.41439">
        <ele>14</ele>
        <time>2023-11-14T09:37:54Z</time>
      </trkpt>
      <trkpt lat="47.12484" lon="-1.41448">
        <ele>18</ele>
        <time>2023-11-14T09:38:39Z</time>
      </trkpt>
      <trkpt lat="47.12452" lon="-1.41512">
        <ele>18</ele>
        <time>2023-11-14T09:39:51Z</time>
      </trkpt>
      <trkpt lat="47.12435" lon="-1.41585">
        <ele>11</ele>
        <time>2023-11-14T09:41:01Z</time>
      </trkpt>
      <trkpt lat="47.12409" lon="-1.41607">
        <ele>12</ele>
        <time>2023-11-14T09:41:41Z</time>
      </trkpt>
      <trkpt lat="47.12385" lon="-1.41654">
        <ele>11</ele>
        <time>2023-11-14T09:42:34Z</time>
      </trkpt>
      <trkpt lat="47.12359" lon="-1.4174">
        <ele>12</ele>
        <time>2023-11-14T09:44:00Z</time>
      </trkpt>
      <trkpt lat="47.12309" lon="-1.41791">
        <ele>13</ele>
        <time>2023-11-14T09:45:21Z</time>
      </trkpt>
      <trkpt lat="47.12251" lon="-1.41834">
        <ele>13</ele>
        <time>2023-11-14T09:46:48Z</time>
      </trkpt>
      <trkpt lat="47.12163" lon="-1.41782">
        <ele>20</ele>
        <time>2023-11-14T09:48:54Z</time>
      </trkpt>
      <trkpt lat="47.1206" lon="-1.41704">
        <ele>25</ele>
        <time>2023-11-14T09:51:29Z</time>
      </trkpt>
      <trkpt lat="47.11961" lon="-1.417">
        <ele>19</ele>
        <time>2023-11-14T09:53:41Z</time>
      </trkpt>
      <trkpt lat="47.11832" lon="-1.41709">
        <ele>16</ele>
        <time>2023-11-14T09:56:33Z</time>
      </trkpt>
      <trkpt lat="47.11768" lon="-1.41683">
        <ele>17</ele>
        <time>2023-11-14T09:58:02Z</time>
      </trkpt>
      <trkpt lat="47.11733" lon="-1.4161">
        <ele>25</ele>
        <time>2023-11-14T09:59:23Z</time>
      </trkpt>
      <trkpt lat="47.11683" lon="-1.41546">
        <ele>30</ele>
        <time>2023-11-14T10:00:52Z</time>
      </trkpt>
      <trkpt lat="47.11715" lon="-1.41451">
        <ele>41</ele>
        <time>2023-11-14T10:02:28Z</time>
      </trkpt>
      <trkpt lat="47.12195" lon="-1.41664">
        <ele>37</ele>
        <time>2023-11-14T10:13:37Z</time>
      </trkpt>
      <trkpt lat="47.12417" lon="-1.41426">
        <ele>39</ele>
        <time>2023-11-14T10:19:44Z</time>
      </trkpt>
      <trkpt lat="47.12402" lon="-1.41262">
        <ele>44</ele>
        <time>2023-11-14T10:22:14Z</time>
      </trkpt>
      <trkpt lat="47.1249" lon="-1.41305">
        <ele>37</ele>
        <time>2023-11-14T10:24:18Z</time>
      </trkpt>
      <trkpt lat="47.12522" lon="-1.41318">
        <ele>31</ele>
        <time>2023-11-14T10:25:02Z</time>
      </trkpt>
      <trkpt lat="47.12519" lon="-1.41408">
        <ele>17</ele>
        <time>2023-11-14T10:26:24Z</time>
      </trkpt>
      <trkpt lat="47.12574" lon="-1.41391">
        <ele>13</ele>
        <time>2023-11-14T10:27:39Z</time>
      </trkpt>
      <trkpt lat="47.12636" lon="-1.4134">
        <ele>14</ele>
        <time>2023-11-14T10:29:14Z</time>
      </trkpt>
      <trkpt lat="47.12715" lon="-1.4128">
        <ele>18</ele>
        <time>2023-11-14T10:31:12Z</time>
      </trkpt>
      <trkpt lat="47.12802" lon="-1.41228">
        <ele>19</ele>
        <time>2023-11-14T10:33:18Z</time>
      </trkpt>
      <trkpt lat="47.12899" lon="-1.41215">
        <ele>14</ele>
        <time>2023-11-14T10:35:28Z</time>
      </trkpt>
      <trkpt lat="47.1298" lon="-1.41241">
        <ele>10</ele>
        <time>2023-11-14T10:37:18Z</time>
      </trkpt>
      <trkpt lat="47.1305" lon="-1.41292">
        <ele>8</ele>
        <time>2023-11-14T10:39:03Z</time>
      </trkpt>
      <trkpt lat="47.13138" lon="-1.41284">
        <ele>10</ele>
        <time>2023-11-14T10:41:00Z</time>
      </trkpt>
      <trkpt lat="47.13228" lon="-1.41284">
        <ele>13</ele>
        <time>2023-11-14T10:43:00Z</time>
      </trkpt>
      <trkpt lat="47.13307" lon="-1.41318">
        <ele>18</ele>
        <time>2023-11-14T10:44:50Z</time>
      </trkpt>
      <trkpt lat="47.13395" lon="-1.41378">
        <ele>18</ele>
        <time>2023-11-14T10:47:00Z</time>
      </trkpt>
      <trkpt lat="47.13485" lon="-1.41447">
        <ele>13</ele>
        <time>2023-11-14T10:49:15Z</time>
      </trkpt>
      <trkpt lat="47.13576" lon="-1.41507">
        <ele>14</ele>
        <time>2023-11-14T10:51:28Z</time>
      </trkpt>
      <trkpt lat="47.13669" lon="-1.41567">
        <ele>16</ele>
        <time>2023-11-14T10:53:44Z</time>
      </trkpt>
      <trkpt lat="47.13742" lon="-1.41683">
        <ele>11</ele>
        <time>2023-11-14T10:56:07Z</time>
      </trkpt>
      <trkpt lat="47.13821" lon="-1.41747">
        <ele>10</ele>
        <time>2023-11-14T10:58:07Z</time>
      </trkpt>
      <trkpt lat="47.13894" lon="-1.41799">
        <ele>9</ele>
        <time>2023-11-14T10:59:56Z</time>
      </trkpt>
      <trkpt lat="47.13926" lon="-1.4179">
        <ele>11</ele>
        <time>2023-11-14T11:00:39Z</time>
      </trkpt>
      <trkpt lat="47.13967" lon="-1.41825">
        <ele>10</ele>
        <time>2023-11-14T11:01:42Z</time>
      </trkpt>
      <trkpt lat="47.14046" lon="-1.41833">
        <ele>14</ele>
        <time>2023-11-14T11:03:28Z</time>
      </trkpt>
      <trkpt lat="47.14069" lon="-1.41915">
        <ele>8</ele>
        <time>2023-11-14T11:04:49Z</time>
      </trkpt>
      <trkpt lat="47.14133" lon="-1.41979">
        <ele>9</ele>
        <time>2023-11-14T11:06:32Z</time>
      </trkpt>
      <trkpt lat="47.14241" lon="-1.42146">
        <ele>11</ele>
        <time>2023-11-14T11:10:01Z</time>
      </trkpt>
      <trkpt lat="47.14358" lon="-1.42314">
        <ele>10</ele>
        <time>2023-11-14T11:13:39Z</time>
      </trkpt>
      <trkpt lat="47.14402" lon="-1.42408">
        <ele>10</ele>
        <time>2023-11-14T11:15:23Z</time>
      </trkpt>
      <trkpt lat="47.14455" lon="-1.42378">
        <ele>16</ele>
        <time>2023-11-14T11:16:39Z</time>
      </trkpt>
      <trkpt lat="47.14513" lon="-1.42335">
        <ele>22</ele>
        <time>2023-11-14T11:18:05Z</time>
      </trkpt>
      <trkpt lat="47.14548" lon="-1.42292">
        <ele>23</ele>
        <time>2023-11-14T11:19:06Z</time>
      </trkpt>
      <trkpt lat="47.14519" lon="-1.42228">
        <ele>23</ele>
        <time>2023-11-14T11:20:16Z</time>
      </trkpt>
      <trkpt lat="47.14563" lon="-1.42198">
        <ele>21</ele>
        <time>2023-11-14T11:21:21Z</time>
      </trkpt>
      <trkpt lat="47.14641" lon="-1.42155">
        <ele>13</ele>
        <time>2023-11-14T11:23:12Z</time>
      </trkpt>
      <trkpt lat="47.14668" lon="-1.42146">
        <ele>10</ele>
        <time>2023-11-14T11:23:49Z</time>
      </trkpt>
      <trkpt lat="47.14691" lon="-1.42138">
        <ele>8</ele>
        <time>2023-11-14T11:24:20Z</time>
      </trkpt>
      <trkpt lat="47.14799" lon="-1.42254">
        <ele>9</ele>
        <time>2023-11-14T11:27:19Z</time>
      </trkpt>
      <trkpt lat="47.14846" lon="-1.42275">
        <ele>12</ele>
        <time>2023-11-14T11:28:24Z</time>
      </trkpt>
      <trkpt lat="47.14913" lon="-1.42288">
        <ele>13</ele>
        <time>2023-11-14T11:29:55Z</time>
      </trkpt>
      <trkpt lat="47.1498" lon="-1.4231">
        <ele>14</ele>
        <time>2023-11-14T11:31:26Z</time>
      </trkpt>
      <trkpt lat="47.15047" lon="-1.42352">
        <ele>14</ele>
        <time>2023-11-14T11:33:03Z</time>
      </trkpt>
      <trkpt lat="47.15091" lon="-1.42408">
        <ele>16</ele>
        <time>2023-11-14T11:34:21Z</time>
      </trkpt>
      <trkpt lat="47.15105" lon="-1.42451">
        <ele>17</ele>
        <time>2023-11-14T11:35:04Z</time>
      </trkpt>
      <trkpt lat="47.15137" lon="-1.42511">
        <ele>15</ele>
        <time>2023-11-14T11:36:14Z</time>
      </trkpt>
      <trkpt lat="47.15181" lon="-1.42541">
        <ele>13</ele>
        <time>2023-11-14T11:37:18Z</time>
      </trkpt>
      <trkpt lat="47.1521" lon="-1.42619">
        <ele>17</ele>
        <time>2023-11-14T11:38:39Z</time>
      </trkpt>
      <trkpt lat="47.1524" lon="-1.42704">
        <ele>19</ele>
        <time>2023-11-14T11:40:06Z</time>
      </trkpt>
      <trkpt lat="47.15254" lon="-1.42794">
        <ele>22</ele>
        <time>2023-11-14T11:41:30Z</time>
      </trkpt>
      <trkpt lat="47.15269" lon="-1.4288">
        <ele>22</ele>
        <time>2023-11-14T11:42:50Z</time>
      </trkpt>
      <trkpt lat="47.15278" lon="-1.42966">
        <ele>22</ele>
        <time>2023-11-14T11:44:09Z</time>
      </trkpt>
      <trkpt lat="47.15237" lon="-1.43">
        <ele>25</ele>
        <time>2023-11-14T11:45:12Z</time>
      </trkpt>
      <trkpt lat="47.15254" lon="-1.43026">
        <ele>23</ele>
        <time>2023-11-14T11:45:45Z</time>
      </trkpt>
      <trkpt lat="47.15269" lon="-1.43056">
        <ele>20</ele>
        <time>2023-11-14T11:46:19Z</time>
      </trkpt>
      <trkpt lat="47.1528" lon="-1.43103">
        <ele>18</ele>
        <time>2023-11-14T11:47:04Z</time>
      </trkpt>
      <trkpt lat="47.15292" lon="-1.43146">
        <ele>15</ele>
        <time>2023-11-14T11:47:46Z</time>
      </trkpt>
      <trkpt lat="47.15313" lon="-1.43189">
        <ele>11</ele>
        <time>2023-11-14T11:48:34Z</time>
      </trkpt>
      <trkpt lat="47.15316" lon="-1.43228">
        <ele>10</ele>
        <time>2023-11-14T11:49:09Z</time>
      </trkpt>
      <trkpt lat="47.15304" lon="-1.43275">
        <ele>11</ele>
        <time>2023-11-14T11:49:55Z</time>
      </trkpt>
      <trkpt lat="47.15286" lon="-1.43335">
        <ele>13</ele>
        <time>2023-11-14T11:50:55Z</time>
      </trkpt>
      <trkpt lat="47.15283" lon="-1.43382">
        <ele>13</ele>
        <time>2023-11-14T11:51:37Z</time>
      </trkpt>
      <trkpt lat="47.15298" lon="-1.4346">
        <ele>10</ele>
        <time>2023-11-14T11:52:51Z</time>
      </trkpt>
      <trkpt lat="47.15313" lon="-1.43537">
        <ele>9</ele>
        <time>2023-11-14T11:54:04Z</time>
      </trkpt>
      <trkpt lat="47.15321" lon="-1.43631">
        <ele>9</ele>
        <time>2023-11-14T11:55:30Z</time>
      </trkpt>
      <trkpt lat="47.1531" lon="-1.4373">
        <ele>13</ele>
        <time>2023-11-14T11:57:01Z</time>
      </trkpt>
      <trkpt lat="47.15304" lon="-1.4382">
        <ele>12</ele>
        <time>2023-11-14T11:58:23Z</time>
      </trkpt>
      <trkpt lat="47.15289" lon="-1.43885">
        <ele>13</ele>
        <time>2023-11-14T11:59:25Z</time>
      </trkpt>
      <trkpt lat="47.15345" lon="-1.43962">
        <ele>7</ele>
        <time>2023-11-14T12:01:07Z</time>
      </trkpt>
      <trkpt lat="47.15372" lon="-1.44013">
        <ele>8</ele>
        <time>2023-11-14T12:02:06Z</time>
      </trkpt>
      <trkpt lat="47.15328" lon="-1.44073">
        <ele>8</ele>
        <time>2023-11-14T12:03:26Z</time>
      </trkpt>
      <trkpt lat="47.15275" lon="-1.44151">
        <ele>7</ele>
        <time>2023-11-14T12:05:06Z</time>
      </trkpt>
      <trkpt lat="47.15226" lon="-1.44232">
        <ele>9</ele>
        <time>2023-11-14T12:06:44Z</time>
      </trkpt>
      <trkpt lat="47.15229" lon="-1.44309">
        <ele>9</ele>
        <time>2023-11-14T12:07:54Z</time>
      </trkpt>
      <trkpt lat="47.15266" lon="-1.44417">
        <ele>6</ele>
        <time>2023-11-14T12:09:44Z</time>
      </trkpt>
      <trkpt lat="47.15319" lon="-1.4452">
        <ele>5</ele>
        <time>2023-11-14T12:11:41Z</time>
      </trkpt>
      <trkpt lat="47.1536" lon="-1.44575">
        <ele>7</ele>
        <time>2023-11-14T12:12:55Z</time>
      </trkpt>
      <trkpt lat="47.15407" lon="-1.44618">
        <ele>10</ele>
        <time>2023-11-14T12:14:09Z</time>
      </trkpt>
      <trkpt lat="47.15424" lon="-1.44683">
        <ele>13</ele>
        <time>2023-11-14T12:15:13Z</time>
      </trkpt>
      <trkpt lat="47.15418" lon="-1.44773">
        <ele>12</ele>
        <time>2023-11-14T12:16:35Z</time>
      </trkpt>
      <trkpt lat="47.15424" lon="-1.44867">
        <ele>12</ele>
        <time>2023-11-14T12:18:00Z</time>
      </trkpt>
      <trkpt lat="47.15427" lon="-1.44962">
        <ele>12</ele>
        <time>2023-11-14T12:19:27Z</time>
      </trkpt>
      <trkpt lat="47.15409" lon="-1.45073">
        <ele>11</ele>
        <time>2023-11-14T12:21:10Z</time>
      </trkpt>
      <trkpt lat="47.15433" lon="-1.45185">
        <ele>8</ele>
        <time>2023-11-14T12:22:57Z</time>
      </trkpt>
      <trkpt lat="47.15453" lon="-1.45245">
        <ele>9</ele>
        <time>2023-11-14T12:23:57Z</time>
      </trkpt>
      <trkpt lat="47.15517" lon="-1.45241">
        <ele>14</ele>
        <time>2023-11-14T12:25:23Z</time>
      </trkpt>
      <trkpt lat="47.15558" lon="-1.45215">
        <ele>14</ele>
        <time>2023-11-14T12:26:22Z</time>
      </trkpt>
      <trkpt lat="47.15532" lon="-1.45129">
        <ele>16</ele>
        <time>2023-11-14T12:27:48Z</time>
      </trkpt>
      <trkpt lat="47.15547" lon="-1.45069">
        <ele>17</ele>
        <time>2023-11-14T12:28:46Z</time>
      </trkpt>
      <trkpt lat="47.15593" lon="-1.45035">
        <ele>17</ele>
        <time>2023-11-14T12:29:55Z</time>
      </trkpt>
      <trkpt lat="47.15655" lon="-1.45005">
        <ele>21</ele>
        <time>2023-11-14T12:31:22Z</time>
      </trkpt>
      <trkpt lat="47.15701" lon="-1.4503">
        <ele>23</ele>
        <time>2023-11-14T12:32:27Z</time>
      </trkpt>
      <trkpt lat="47.15725" lon="-1.45103">
        <ele>22</ele>
        <time>2023-11-14T12:33:41Z</time>
      </trkpt>
      <trkpt lat="47.15739" lon="-1.45193">
        <ele>25</ele>
        <time>2023-11-14T12:35:04Z</time>
      </trkpt>
      <trkpt lat="47.15768" lon="-1.45301">
        <ele>28</ele>
        <time>2023-11-14T12:36:50Z</time>
      </trkpt>
      <trkpt lat="47.15777" lon="-1.45374">
        <ele>29</ele>
        <time>2023-11-14T12:37:57Z</time>
      </trkpt>
      <trkpt lat="47.1583" lon="-1.45391">
        <ele>32</ele>
        <time>2023-11-14T12:39:09Z</time>
      </trkpt>
      <trkpt lat="47.15812" lon="-1.45451">
        <ele>31</ele>
        <time>2023-11-14T12:40:09Z</time>
      </trkpt>
      <trkpt lat="47.15789" lon="-1.45537">
        <ele>30</ele>
        <time>2023-11-14T12:41:33Z</time>
      </trkpt>
      <trkpt lat="47.15777" lon="-1.45605">
        <ele>30</ele>
        <time>2023-11-14T12:42:37Z</time>
      </trkpt>
      <trkpt lat="47.1576" lon="-1.45683">
        <ele>30</ele>
        <time>2023-11-14T12:43:51Z</time>
      </trkpt>
      <trkpt lat="47.15736" lon="-1.45777">
        <ele>29</ele>
        <time>2023-11-14T12:45:22Z</time>
      </trkpt>
      <trkpt lat="47.15684" lon="-1.4582">
        <ele>30</ele>
        <time>2023-11-14T12:46:42Z</time>
      </trkpt>
      <trkpt lat="47.15663" lon="-1.45872">
        <ele>30</ele>
        <time>2023-11-14T12:47:37Z</time>
      </trkpt>
      <trkpt lat="47.15623" lon="-1.4591">
        <ele>29</ele>
        <time>2023-11-14T12:48:40Z</time>
      </trkpt>
      <trkpt lat="47.15564" lon="-1.45957">
        <ele>28</ele>
        <time>2023-11-14T12:50:10Z</time>
      </trkpt>
      <trkpt lat="47.15491" lon="-1.46017">
        <ele>21</ele>
        <time>2023-11-14T12:52:01Z</time>
      </trkpt>
      <trkpt lat="47.15436" lon="-1.46043">
        <ele>18</ele>
        <time>2023-11-14T12:53:18Z</time>
      </trkpt>
      <trkpt lat="47.15369" lon="-1.45992">
        <ele>12</ele>
        <time>2023-11-14T12:54:59Z</time>
      </trkpt>
      <trkpt lat="47.15313" lon="-1.46069">
        <ele>13</ele>
        <time>2023-11-14T12:56:41Z</time>
      </trkpt>
      <trkpt lat="47.15319" lon="-1.46176">
        <ele>15</ele>
        <time>2023-11-14T12:58:19Z</time>
      </trkpt>
      <trkpt lat="47.15313" lon="-1.46292">
        <ele>14</ele>
        <time>2023-11-14T13:00:04Z</time>
      </trkpt>
      <trkpt lat="47.15319" lon="-1.46412">
        <ele>11</ele>
        <time>2023-11-14T13:01:54Z</time>
      </trkpt>
      <trkpt lat="47.15342" lon="-1.46481">
        <ele>10</ele>
        <time>2023-11-14T13:03:03Z</time>
      </trkpt>
      <trkpt lat="47.15322" lon="-1.46575">
        <ele>6</ele>
        <time>2023-11-14T13:04:33Z</time>
      </trkpt>
      <trkpt lat="47.15313" lon="-1.467">
        <ele>6</ele>
        <time>2023-11-14T13:06:27Z</time>
      </trkpt>
      <trkpt lat="47.15331" lon="-1.46773">
        <ele>5</ele>
        <time>2023-11-14T13:07:37Z</time>
      </trkpt>
      <trkpt lat="47.15272" lon="-1.4679">
        <ele>4</ele>
        <time>2023-11-14T13:08:57Z</time>
      </trkpt>
      <trkpt lat="47.15205" lon="-1.46816">
        <ele>3</ele>
        <time>2023-11-14T13:10:30Z</time>
      </trkpt>
      <trkpt lat="47.15129" lon="-1.46824">
        <ele>2</ele>
        <time>2023-11-14T13:12:12Z</time>
      </trkpt>
      <trkpt lat="47.15065" lon="-1.4685">
        <ele>4</ele>
        <time>2023-11-14T13:13:40Z</time>
      </trkpt>
      <trkpt lat="47.14995" lon="-1.46846">
        <ele>10</ele>
        <time>2023-11-14T13:15:14Z</time>
      </trkpt>
      <trkpt lat="47.14948" lon="-1.4682">
        <ele>13</ele>
        <time>2023-11-14T13:16:21Z</time>
      </trkpt>
      <trkpt lat="47.14996" lon="-1.46768">
        <ele>9</ele>
        <time>2023-11-14T13:17:40Z</time>
      </trkpt>
    </trkseg>
  </trk>
</gpx>